Kennicott — WCY2920 — position and weather

sailwx.info

Track history (hours):
 
Tides and Currents Weather Stations Pressure Air Temp Water Temp Dewpoint Dewpoint Depression Visibility Wind Speed Wind Dir Waves Ship Positions

Kennicott

Owner: ALASKA, STATE OF, Anchorage, AK. More information available from US FCC via Universal Licensing System and Coast Guard Vessel Documentation Center.

Last reported at 2018-Aug-15 08:03 UTC. Time now 2018-Aug-15 12:36 UTC.
Position N 59°10' W 139°16'.

Type: Passenger vessel. MMSI: 368250000.

Date/timePositionNaut miles runAvg speedWind from/ knotsBaromVisibWave heightAir tempDewpointWater temp
2018-Aug-15 08:03N 59°10' W 139°16'114.9
2018-Aug-15 07:59N 59°10' W 139°18'  
2018-Aug-08 00:44N 58°14' W 136°19'415.6
2018-Aug-08 00:29N 58°14' W 136°11'816.2
2018-Aug-08 00:00N 58°16' W 135°57'715.2
2018-Aug-07 23:31N 58°18' W 135°43'228 6.9
2018-Aug-06 14:17N 55°17' W 131°30'2014.3
2018-Aug-06 12:53N 55°02' W 131°07'614.7
2018-Aug-06 12:30N 54°56' W 131°03'714.6
2018-Aug-06 12:00N 54°49' W 130°60'713.8
2018-Aug-06 11:30N 54°44' W 130°53'713.7
2018-Aug-06 11:00N 54°38' W 130°45'714.2
2018-Aug-06 10:30N 54°32' W 130°39'815.3
2018-Aug-06 10:00N 54°25' W 130°37'714.6
2018-Aug-06 09:30N 54°18' W 130°34'714.4
2018-Aug-06 09:00N 54°11' W 130°28'713.3
2018-Aug-06 08:30N 54°06' W 130°21'713.6
2018-Aug-06 08:00N 54°01' W 130°14'713.9
2018-Aug-06 07:30N 53°54' W 130°09'815.7
2018-Aug-06 07:00N 53°49' W 129°59'815.4
2018-Aug-06 06:30N 53°44' W 129°50'7413.5
2018-Aug-06 01:03N 52°46' W 128°33'315.0
2018-Aug-06 00:51N 52°43' W 128°34'514.9
2018-Aug-06 00:30N 52°38' W 128°31'815.2
2018-Aug-06 00:00N 52°31' W 128°28'815.6
2018-Aug-05 23:30N 52°23' W 128°31'714.4
2018-Aug-05 23:00N 52°16' W 128°30'815.6
2018-Aug-05 22:30N 52°15' W 128°18'815.6
2018-Aug-05 22:00N 52°12' W 128°06'5 9.6
2018-Aug-05 21:30N 52°07' W 128°08'714.0
2018-Aug-05 21:01N 52°04' W 127°57'714.1
2018-Aug-05 20:30N 51°57' W 127°56'815.7
2018-Aug-05 20:00N 51°49' W 127°56'815.7
2018-Aug-05 19:30N 51°41' W 127°55'815.3
2018-Aug-05 19:00N 51°34' W 127°52'815.6
2018-Aug-05 18:30N 51°26' W 127°51'815.4
2018-Aug-05 18:00N 51°19' W 127°52'815.4
2018-Aug-05 17:30N 51°11' W 127°51'815.7
2018-Aug-05 17:00N 51°05' W 127°42'815.7
2018-Aug-05 16:30N 50°59' W 127°34'815.7
2018-Aug-05 16:00N 50°55' W 127°24'816.4
2018-Aug-05 15:30N 50°50' W 127°13'816.5
2018-Aug-05 15:00N 50°46' W 127°02'816.0
2018-Aug-05 14:30N 50°41' W 126°52'1515.1
2018-Aug-05 13:31N 50°30' W 126°35'816.2
2018-Aug-05 12:59N 50°30' W 126°22'2416.7
2018-Aug-05 11:33N 50°22' W 125°46'217.9
2018-Aug-05 11:28N 50°22' W 125°43'1117.3
2018-Aug-05 10:51N 50°20' W 125°27'616.7
2018-Aug-05 10:30N 50°15' W 125°23'917.9
2018-Aug-05 10:00N 50°07' W 125°19'816.7
2018-Aug-05 09:31N 49°60' W 125°12'816.3
2018-Aug-05 09:00N 49°54' W 125°03'916.9
2018-Aug-05 08:29N 49°48' W 124°53'  
Track history (hours):
 
Tides and Currents Weather Stations Pressure Air Temp Water Temp Dewpoint Dewpoint Depression Visibility Wind Speed Wind Dir Waves Ship Positions

Kennicott

Owner: ALASKA, STATE OF, Anchorage, AK. More information available from US FCC via Universal Licensing System and Coast Guard Vessel Documentation Center.

Last reported at 2018-Aug-15 08:03 UTC. Time now 2018-Aug-15 12:36 UTC.
Position N 59°10' W 139°16'.

Type: Passenger vessel. MMSI: 368250000.

Date/timePositionNaut miles runAvg speedWind from/ knotsBaromVisibWave heightAir tempDewpointWater temp
2018-Aug-15 08:03N 59°10' W 139°16'114.9
2018-Aug-15 07:59N 59°10' W 139°18'  
2018-Aug-08 00:44N 58°14' W 136°19'415.6
2018-Aug-08 00:29N 58°14' W 136°11'816.2
2018-Aug-08 00:00N 58°16' W 135°57'715.2
2018-Aug-07 23:31N 58°18' W 135°43'228 6.9
2018-Aug-06 14:17N 55°17' W 131°30'2014.3
2018-Aug-06 12:53N 55°02' W 131°07'614.7
2018-Aug-06 12:30N 54°56' W 131°03'714.6
2018-Aug-06 12:00N 54°49' W 130°60'713.8
2018-Aug-06 11:30N 54°44' W 130°53'713.7
2018-Aug-06 11:00N 54°38' W 130°45'714.2
2018-Aug-06 10:30N 54°32' W 130°39'815.3
2018-Aug-06 10:00N 54°25' W 130°37'714.6
2018-Aug-06 09:30N 54°18' W 130°34'714.4
2018-Aug-06 09:00N 54°11' W 130°28'713.3
2018-Aug-06 08:30N 54°06' W 130°21'713.6
2018-Aug-06 08:00N 54°01' W 130°14'713.9
2018-Aug-06 07:30N 53°54' W 130°09'815.7
2018-Aug-06 07:00N 53°49' W 129°59'815.4
2018-Aug-06 06:30N 53°44' W 129°50'7413.5
2018-Aug-06 01:03N 52°46' W 128°33'315.0
2018-Aug-06 00:51N 52°43' W 128°34'514.9
2018-Aug-06 00:30N 52°38' W 128°31'815.2
2018-Aug-06 00:00N 52°31' W 128°28'815.6
2018-Aug-05 23:30N 52°23' W 128°31'714.4
2018-Aug-05 23:00N 52°16' W 128°30'815.6
2018-Aug-05 22:30N 52°15' W 128°18'815.6
2018-Aug-05 22:00N 52°12' W 128°06'5 9.6
2018-Aug-05 21:30N 52°07' W 128°08'714.0
2018-Aug-05 21:01N 52°04' W 127°57'714.1
2018-Aug-05 20:30N 51°57' W 127°56'815.7
2018-Aug-05 20:00N 51°49' W 127°56'815.7
2018-Aug-05 19:30N 51°41' W 127°55'815.3
2018-Aug-05 19:00N 51°34' W 127°52'815.6
2018-Aug-05 18:30N 51°26' W 127°51'815.4
2018-Aug-05 18:00N 51°19' W 127°52'815.4
2018-Aug-05 17:30N 51°11' W 127°51'815.7
2018-Aug-05 17:00N 51°05' W 127°42'815.7
2018-Aug-05 16:30N 50°59' W 127°34'815.7
2018-Aug-05 16:00N 50°55' W 127°24'816.4
2018-Aug-05 15:30N 50°50' W 127°13'816.5
2018-Aug-05 15:00N 50°46' W 127°02'816.0
2018-Aug-05 14:30N 50°41' W 126°52'1515.1
2018-Aug-05 13:31N 50°30' W 126°35'816.2
2018-Aug-05 12:59N 50°30' W 126°22'2416.7
2018-Aug-05 11:33N 50°22' W 125°46'217.9
2018-Aug-05 11:28N 50°22' W 125°43'1117.3
2018-Aug-05 10:51N 50°20' W 125°27'616.7
2018-Aug-05 10:30N 50°15' W 125°23'917.9
2018-Aug-05 10:00N 50°07' W 125°19'816.7
2018-Aug-05 09:31N 49°60' W 125°12'816.3
2018-Aug-05 09:00N 49°54' W 125°03'916.9
2018-Aug-05 08:29N 49°48' W 124°53'  

Dump ship's entire track history